sensor_id;sensor_type;location;lat;lon;timestamp;pressure;altitude;pressure_sealevel;temperature;humidity
49515;BME280;35415;47.870;16.058;2022-08-30T00:00:09;97706.22;;;17.05;83.73
49515;BME280;35415;47.870;16.058;2022-08-30T00:02:55;97692.00;;;16.95;83.88
49515;BME280;35415;47.870;16.058;2022-08-30T00:05:23;97710.44;;;16.98;84.13
49515;BME280;35415;47.870;16.058;2022-08-30T00:07:50;97709.41;;;16.94;84.43
49515;BME280;35415;47.870;16.058;2022-08-30T00:10:17;97704.88;;;16.89;84.40
49515;BME280;35415;47.870;16.058;2022-08-30T00:12:44;97701.13;;;16.85;84.53
49515;BME280;35415;47.870;16.058;2022-08-30T00:15:15;97685.00;;;16.75;84.72
49515;BME280;35415;47.870;16.058;2022-08-30T00:17:43;97695.78;;;16.80;84.69
49515;BME280;35415;47.870;16.058;2022-08-30T00:20:13;97690.41;;;16.75;84.73
49515;BME280;35415;47.870;16.058;2022-08-30T00:22:40;97698.28;;;16.76;84.44
49515;BME280;35415;47.870;16.058;2022-08-30T00:25:08;97699.97;;;16.72;84.58
49515;BME280;35415;47.870;16.058;2022-08-30T00:27:35;97698.66;;;16.70;84.55
49515;BME280;35415;47.870;16.058;2022-08-30T00:30:03;97698.97;;;16.68;84.79
49515;BME280;35415;47.870;16.058;2022-08-30T00:32:32;97698.97;;;16.68;84.93
49515;BME280;35415;47.870;16.058;2022-08-30T00:34:59;97700.63;;;16.64;85.15
49515;BME280;35415;47.870;16.058;2022-08-30T00:37:26;97701.75;;;16.63;85.12
49515;BME280;35415;47.870;16.058;2022-08-30T00:39:53;97698.78;;;16.60;85.38
49515;BME280;35415;47.870;16.058;2022-08-30T00:42:20;97695.06;;;16.55;85.84
49515;BME280;35415;47.870;16.058;2022-08-30T00:44:48;97705.41;;;16.53;85.37
49515;BME280;35415;47.870;16.058;2022-08-30T00:47:16;97697.91;;;16.45;85.80
49515;BME280;35415;47.870;16.058;2022-08-30T00:49:48;97702.28;;;16.46;85.85
49515;BME280;35415;47.870;16.058;2022-08-30T00:52:16;97677.59;;;16.24;85.87
49515;BME280;35415;47.870;16.058;2022-08-30T00:54:45;97703.44;;;16.40;86.32
49515;BME280;35415;47.870;16.058;2022-08-30T00:57:14;97707.25;;;16.39;86.66
49515;BME280;35415;47.870;16.058;2022-08-30T00:59:42;97691.69;;;16.26;86.78
49515;BME280;35415;47.870;16.058;2022-08-30T01:02:10;97689.44;;;16.33;87.01
49515;BME280;35415;47.870;16.058;2022-08-30T01:04:39;97698.09;;;16.35;86.78
49515;BME280;35415;47.870;16.058;2022-08-30T01:07:10;97703.00;;;16.33;86.73
49515;BME280;35415;47.870;16.058;2022-08-30T01:09:37;97704.09;;;16.32;86.69
49515;BME280;35415;47.870;16.058;2022-08-30T01:12:05;97681.59;;;16.13;86.57
49515;BME280;35415;47.870;16.058;2022-08-30T01:14:32;97700.63;;;16.27;86.46
49515;BME280;35415;47.870;16.058;2022-08-30T01:16:59;97697.91;;;16.27;86.19
49515;BME280;35415;47.870;16.058;2022-08-30T01:19:33;97702.03;;;16.24;86.36
49515;BME280;35415;47.870;16.058;2022-08-30T01:22:07;97700.41;;;16.23;86.58
49515;BME280;35415;47.870;16.058;2022-08-30T01:24:38;97706.94;;;16.22;86.34
49515;BME280;35415;47.870;16.058;2022-08-30T01:27:05;97695.88;;;16.18;86.22
49515;BME280;35415;47.870;16.058;2022-08-30T01:29:32;97694.56;;;16.16;86.48
49515;BME280;35415;47.870;16.058;2022-08-30T01:31:59;97689.44;;;16.14;86.26
49515;BME280;35415;47.870;16.058;2022-08-30T01:34:27;97613.91;;;15.60;86.70
49515;BME280;35415;47.870;16.058;2022-08-30T01:36:54;97688.66;;;16.09;86.44
49515;BME280;35415;47.870;16.058;2022-08-30T01:39:22;97686.56;;;16.06;86.72
49515;BME280;35415;47.870;16.058;2022-08-30T01:41:50;97683.91;;;16.01;86.79
49515;BME280;35415;47.870;16.058;2022-08-30T01:44:17;97677.47;;;15.97;87.04
49515;BME280;35415;47.870;16.058;2022-08-30T01:46:46;97682.09;;;15.96;87.30
49515;BME280;35415;47.870;16.058;2022-08-30T01:49:15;97697.00;;;15.93;86.93
49515;BME280;35415;47.870;16.058;2022-08-30T01:51:42;97687.56;;;15.91;87.01
49515;BME280;35415;47.870;16.058;2022-08-30T01:54:10;97682.50;;;15.84;86.93
49515;BME280;35415;47.870;16.058;2022-08-30T01:56:37;97667.97;;;15.75;87.14
49515;BME280;35415;47.870;16.058;2022-08-30T01:59:06;97666.19;;;15.66;87.31
49515;BME280;35415;47.870;16.058;2022-08-30T02:01:34;97689.63;;;15.80;87.13
49515;BME280;35415;47.870;16.058;2022-08-30T02:04:05;97696.94;;;15.80;87.19
49515;BME280;35415;47.870;16.058;2022-08-30T02:06:33;97671.63;;;15.66;87.54
49515;BME280;35415;47.870;16.058;2022-08-30T02:09:00;97663.34;;;15.52;87.62
49515;BME280;35415;47.870;16.058;2022-08-30T02:11:28;97690.47;;;15.76;87.32
49515;BME280;35415;47.870;16.058;2022-08-30T02:13:55;97684.00;;;15.72;87.84
49515;BME280;35415;47.870;16.058;2022-08-30T02:16:25;97682.19;;;15.67;87.32
49515;BME280;35415;47.870;16.058;2022-08-30T02:18:53;97687.59;;;15.67;87.86
49515;BME280;35415;47.870;16.058;2022-08-30T02:21:21;97684.38;;;15.65;88.18
49515;BME280;35415;47.870;16.058;2022-08-30T02:23:49;97690.09;;;15.63;88.09
49515;BME280;35415;47.870;16.058;2022-08-30T02:26:16;97671.47;;;15.52;88.11
49515;BME280;35415;47.870;16.058;2022-08-30T02:28:44;97689.28;;;15.58;88.63
49515;BME280;35415;47.870;16.058;2022-08-30T02:31:11;97695.53;;;15.58;88.30
49515;BME280;35415;47.870;16.058;2022-08-30T02:33:40;97687.16;;;15.55;88.21
49515;BME280;35415;47.870;16.058;2022-08-30T02:36:07;97692.06;;;15.53;88.44
49515;BME280;35415;47.870;16.058;2022-08-30T02:38:35;97676.19;;;15.41;88.24
49515;BME280;35415;47.870;16.058;2022-08-30T02:41:02;97685.63;;;15.49;88.72
49515;BME280;35415;47.870;16.058;2022-08-30T02:43:29;97677.25;;;15.45;88.62
49515;BME280;35415;47.870;16.058;2022-08-30T02:45:56;97675.63;;;15.44;88.42
49515;BME280;35415;47.870;16.058;2022-08-30T02:48:23;97675.41;;;15.41;88.22
49515;BME280;35415;47.870;16.058;2022-08-30T02:50:52;97672.75;;;15.35;88.06
49515;BME280;35415;47.870;16.058;2022-08-30T02:53:19;97677.38;;;15.35;88.39
49515;BME280;35415;47.870;16.058;2022-08-30T02:55:46;97671.72;;;15.31;88.58
49515;BME280;35415;47.870;16.058;2022-08-30T02:58:14;97671.75;;;15.26;88.82
49515;BME280;35415;47.870;16.058;2022-08-30T03:00:41;97666.63;;;15.25;89.00
49515;BME280;35415;47.870;16.058;2022-08-30T03:03:09;97671.81;;;15.21;89.13
49515;BME280;35415;47.870;16.058;2022-08-30T03:05:36;97672.91;;;15.20;89.13
49515;BME280;35415;47.870;16.058;2022-08-30T03:08:05;97672.91;;;15.20;89.25
49515;BME280;35415;47.870;16.058;2022-08-30T03:10:33;97668.88;;;15.18;89.50
49515;BME280;35415;47.870;16.058;2022-08-30T03:13:00;97673.78;;;15.16;89.71
49515;BME280;35415;47.870;16.058;2022-08-30T03:15:28;97675.47;;;15.12;89.65
49515;BME280;35415;47.870;16.058;2022-08-30T03:17:55;97678.16;;;15.12;89.64
49515;BME280;35415;47.870;16.058;2022-08-30T03:20:24;97671.09;;;15.11;89.42
49515;BME280;35415;47.870;16.058;2022-08-30T03:22:51;97668.69;;;15.09;89.48
49515;BME280;35415;47.870;16.058;2022-08-30T03:25:20;97657.75;;;14.95;89.59
49515;BME280;35415;47.870;16.058;2022-08-30T03:27:48;97630.00;;;14.80;89.54
49515;BME280;35415;47.870;16.058;2022-08-30T03:30:17;97678.25;;;15.01;89.58
49515;BME280;35415;47.870;16.058;2022-08-30T03:32:45;97639.47;;;14.77;89.79
49515;BME280;35415;47.870;16.058;2022-08-30T03:35:13;97674.22;;;14.99;90.10
49515;BME280;35415;47.870;16.058;2022-08-30T03:37:41;97679.41;;;14.95;90.22
49515;BME280;35415;47.870;16.058;2022-08-30T03:40:10;97679.44;;;14.90;90.33
49515;BME280;35415;47.870;16.058;2022-08-30T03:42:39;97679.94;;;14.92;90.29
49515;BME280;35415;47.870;16.058;2022-08-30T03:45:08;97685.66;;;14.91;90.55
49515;BME280;35415;47.870;16.058;2022-08-30T03:47:36;97668.41;;;14.82;90.35
49515;BME280;35415;47.870;16.058;2022-08-30T03:50:04;97681.34;;;14.90;90.38
49515;BME280;35415;47.870;16.058;2022-08-30T03:52:32;97678.91;;;14.88;90.93
49515;BME280;35415;47.870;16.058;2022-08-30T03:55:00;97681.09;;;14.86;90.97
49515;BME280;35415;47.870;16.058;2022-08-30T03:57:27;97687.63;;;14.85;90.93
49515;BME280;35415;47.870;16.058;2022-08-30T03:59:56;97685.19;;;14.84;90.92
49515;BME280;35415;47.870;16.058;2022-08-30T04:02:23;97682.78;;;14.82;90.86
49515;BME280;35415;47.870;16.058;2022-08-30T04:04:51;97684.66;;;14.82;90.60
49515;BME280;35415;47.870;16.058;2022-08-30T04:07:18;97685.25;;;14.79;90.90
49515;BME280;35415;47.870;16.058;2022-08-30T04:09:45;97680.19;;;14.67;90.77
49515;BME280;35415;47.870;16.058;2022-08-30T04:12:13;97696.91;;;14.74;91.07
49515;BME280;35415;47.870;16.058;2022-08-30T04:14:40;97697.19;;;14.72;91.38
49515;BME280;35415;47.870;16.058;2022-08-30T04:17:08;97700.19;;;14.71;91.49
49515;BME280;35415;47.870;16.058;2022-08-30T04:19:36;97680.50;;;14.60;91.49
49515;BME280;35415;47.870;16.058;2022-08-30T04:22:03;97698.63;;;14.65;91.42
49515;BME280;35415;47.870;16.058;2022-08-30T04:24:30;97669.81;;;14.45;91.53
49515;BME280;35415;47.870;16.058;2022-08-30T04:26:59;97687.34;;;14.53;91.30
49515;BME280;35415;47.870;16.058;2022-08-30T04:29:26;97697.03;;;14.59;91.28
49515;BME280;35415;47.870;16.058;2022-08-30T04:31:53;97694.59;;;14.57;91.56
49515;BME280;35415;47.870;16.058;2022-08-30T04:34:21;97705.44;;;14.57;91.66
49515;BME280;35415;47.870;16.058;2022-08-30T04:36:48;97706.81;;;14.55;91.87
49515;BME280;35415;47.870;16.058;2022-08-30T04:39:17;97706.28;;;14.53;91.84
49515;BME280;35415;47.870;16.058;2022-08-30T04:41:44;97709.00;;;14.53;92.12
49515;BME280;35415;47.870;16.058;2022-08-30T04:44:11;97694.16;;;14.40;91.84
49515;BME280;35415;47.870;16.058;2022-08-30T04:46:39;97701.47;;;14.44;92.13
49515;BME280;35415;47.870;16.058;2022-08-30T04:49:06;97694.72;;;14.37;92.09
49515;BME280;35415;47.870;16.058;2022-08-30T04:51:35;97725.81;;;14.50;92.15
49515;BME280;35415;47.870;16.058;2022-08-30T04:54:02;97727.69;;;14.49;92.26
49515;BME280;35415;47.870;16.058;2022-08-30T04:56:29;97732.59;;;14.47;92.08
49515;BME280;35415;47.870;16.058;2022-08-30T04:58:56;97737.19;;;14.47;92.25
49515;BME280;35415;47.870;16.058;2022-08-30T05:01:26;97733.13;;;14.44;92.13
49515;BME280;35415;47.870;16.058;2022-08-30T05:03:54;97714.28;;;14.24;92.21
49515;BME280;35415;47.870;16.058;2022-08-30T05:06:22;97737.44;;;14.50;92.46
49515;BME280;35415;47.870;16.058;2022-08-30T05:08:51;97736.34;;;14.51;92.71
49515;BME280;35415;47.870;16.058;2022-08-30T05:11:18;97741.22;;;14.49;92.61
49515;BME280;35415;47.870;16.058;2022-08-30T05:13:46;97733.13;;;14.49;92.93
49515;BME280;35415;47.870;16.058;2022-08-30T05:16:14;97735.81;;;14.49;92.75
49515;BME280;35415;47.870;16.058;2022-08-30T05:18:44;97679.72;;;14.15;92.75
49515;BME280;35415;47.870;16.058;2022-08-30T05:21:13;97712.28;;;14.39;92.95
49515;BME280;35415;47.870;16.058;2022-08-30T05:23:41;97749.28;;;14.59;93.08
49515;BME280;35415;47.870;16.058;2022-08-30T05:26:13;97745.22;;;14.62;93.15
49515;BME280;35415;47.870;16.058;2022-08-30T05:28:41;97711.97;;;14.51;93.52
49515;BME280;35415;47.870;16.058;2022-08-30T05:31:13;97747.59;;;14.68;93.21
49515;BME280;35415;47.870;16.058;2022-08-30T05:33:40;97742.69;;;14.70;93.59
49515;BME280;35415;47.870;16.058;2022-08-30T05:36:08;97741.13;;;14.64;93.17
49515;BME280;35415;47.870;16.058;2022-08-30T05:38:36;97744.56;;;14.75;93.12
49515;BME280;35415;47.870;16.058;2022-08-30T05:41:03;97753.75;;;14.79;93.25
49515;BME280;35415;47.870;16.058;2022-08-30T05:43:32;97740.44;;;14.83;92.74
49515;BME280;35415;47.870;16.058;2022-08-30T05:45:59;97737.97;;;14.86;93.54
49515;BME280;35415;47.870;16.058;2022-08-30T05:48:27;97738.50;;;14.88;93.41
49515;BME280;35415;47.870;16.058;2022-08-30T05:51:03;97735.22;;;14.91;93.19
49515;BME280;35415;47.870;16.058;2022-08-30T05:53:30;97749.03;;;14.95;92.96
49515;BME280;35415;47.870;16.058;2022-08-30T05:55:59;97746.56;;;14.98;93.68
49515;BME280;35415;47.870;16.058;2022-08-30T05:58:27;97752.19;;;15.02;93.43
49515;BME280;35415;47.870;16.058;2022-08-30T06:00:56;97749.72;;;15.05;93.52
49515;BME280;35415;47.870;16.058;2022-08-30T06:03:23;97751.31;;;15.12;93.34
49515;BME280;35415;47.870;16.058;2022-08-30T06:05:50;97750.75;;;15.15;93.45
49515;BME280;35415;47.870;16.058;2022-08-30T06:08:17;97741.81;;;15.14;93.79
49515;BME280;35415;47.870;16.058;2022-08-30T06:10:45;97753.63;;;15.23;93.38
49515;BME280;35415;47.870;16.058;2022-08-30T06:13:12;97726.66;;;15.13;93.26
49515;BME280;35415;47.870;16.058;2022-08-30T06:15:40;97737.59;;;15.27;93.06
49515;BME280;35415;47.870;16.058;2022-08-30T06:18:11;97754.53;;;15.43;93.02
49515;BME280;35415;47.870;16.058;2022-08-30T06:20:39;97754.22;;;15.44;92.37
49515;BME280;35415;47.870;16.058;2022-08-30T06:23:07;97754.19;;;15.49;92.51
49515;BME280;35415;47.870;16.058;2022-08-30T06:25:35;97753.81;;;15.61;92.71
49515;BME280;35415;47.870;16.058;2022-08-30T06:28:04;97740.06;;;15.52;92.05
49515;BME280;35415;47.870;16.058;2022-08-30T06:30:31;97759.66;;;15.73;92.35
49515;BME280;35415;47.870;16.058;2022-08-30T06:32:59;97756.63;;;15.80;92.16
49515;BME280;35415;47.870;16.058;2022-08-30T06:35:28;97744.97;;;15.79;92.17
49515;BME280;35415;47.870;16.058;2022-08-30T06:37:56;97757.50;;;15.94;92.37
49515;BME280;35415;47.870;16.058;2022-08-30T06:40:24;97728.38;;;15.81;91.82
49515;BME280;35415;47.870;16.058;2022-08-30T06:42:51;97747.41;;;16.00;91.57
49515;BME280;35415;47.870;16.058;2022-08-30T06:45:19;97767.84;;;16.16;91.39
49515;BME280;35415;47.870;16.058;2022-08-30T06:47:47;97684.22;;;15.75;91.71
49515;BME280;35415;47.870;16.058;2022-08-30T06:50:16;97751.06;;;16.33;91.84
49515;BME280;35415;47.870;16.058;2022-08-30T06:52:45;97757.44;;;16.42;91.27
49515;BME280;35415;47.870;16.058;2022-08-30T06:55:14;97742.53;;;16.39;90.83
49515;BME280;35415;47.870;16.058;2022-08-30T06:57:42;97752.59;;;16.58;90.71
49515;BME280;35415;47.870;16.058;2022-08-30T07:00:13;97755.47;;;16.66;89.55
49515;BME280;35415;47.870;16.058;2022-08-30T07:02:40;97756.44;;;16.75;89.84
49515;BME280;35415;47.870;16.058;2022-08-30T07:05:08;97755.47;;;16.85;89.69
49515;BME280;35415;47.870;16.058;2022-08-30T07:07:37;97761.25;;;16.97;89.78
49515;BME280;35415;47.870;16.058;2022-08-30T07:10:07;97759.16;;;17.08;89.39
49515;BME280;35415;47.870;16.058;2022-08-30T07:12:35;97762.22;;;17.20;88.80
49515;BME280;35415;47.870;16.058;2022-08-30T07:15:03;97769.94;;;17.32;88.40
49515;BME280;35415;47.870;16.058;2022-08-30T07:17:31;97767.50;;;17.44;88.01
49515;BME280;35415;47.870;16.058;2022-08-30T07:20:15;97759.97;;;17.55;87.16
49515;BME280;35415;47.870;16.058;2022-08-30T07:22:43;97743.06;;;17.58;86.91
49515;BME280;35415;47.870;16.058;2022-08-30T07:25:13;97752.38;;;17.70;86.89
49515;BME280;35415;47.870;16.058;2022-08-30T07:27:40;97774.84;;;17.90;86.10
49515;BME280;35415;47.870;16.058;2022-08-30T07:30:08;97774.97;;;17.98;85.84
49515;BME280;35415;47.870;16.058;2022-08-30T07:32:35;97773.31;;;18.11;85.68
49515;BME280;35415;47.870;16.058;2022-08-30T07:35:03;97771.09;;;18.13;85.34
49515;BME280;35415;47.870;16.058;2022-08-30T07:37:31;97779.75;;;18.29;84.29
49515;BME280;35415;47.870;16.058;2022-08-30T07:39:58;97773.31;;;18.39;84.15
49515;BME280;35415;47.870;16.058;2022-08-30T07:42:26;97754.22;;;18.39;84.33
49515;BME280;35415;47.870;16.058;2022-08-30T07:44:53;97748.47;;;18.40;83.31
49515;BME280;35415;47.870;16.058;2022-08-30T07:47:21;97777.13;;;18.65;82.66
49515;BME280;35415;47.870;16.058;2022-08-30T07:49:48;97751.47;;;18.66;82.32
49515;BME280;35415;47.870;16.058;2022-08-30T07:52:15;97737.53;;;18.68;81.16
49515;BME280;35415;47.870;16.058;2022-08-30T07:54:42;97748.41;;;18.81;80.94
49515;BME280;35415;47.870;16.058;2022-08-30T07:57:09;97749.44;;;18.94;80.29
49515;BME280;35415;47.870;16.058;2022-08-30T07:59:38;97759.47;;;19.07;80.38
49515;BME280;35415;47.870;16.058;2022-08-30T08:02:05;97755.06;;;19.20;81.08
49515;BME280;35415;47.870;16.058;2022-08-30T08:04:32;97766.22;;;19.32;81.16
49515;BME280;35415;47.870;16.058;2022-08-30T08:07:00;97761.44;;;19.38;78.16
49515;BME280;35415;47.870;16.058;2022-08-30T08:09:27;97761.47;;;19.46;74.16
49515;BME280;35415;47.870;16.058;2022-08-30T08:11:55;97726.13;;;19.33;74.37
49515;BME280;35415;47.870;16.058;2022-08-30T08:14:22;97755.53;;;19.67;74.87
49515;BME280;35415;47.870;16.058;2022-08-30T08:16:50;97753.31;;;19.77;73.59
49515;BME280;35415;47.870;16.058;2022-08-30T08:19:19;97754.97;;;19.87;71.04
49515;BME280;35415;47.870;16.058;2022-08-30T08:21:46;97756.25;;;19.98;70.29
49515;BME280;35415;47.870;16.058;2022-08-30T08:24:13;97753.25;;;20.08;72.86
49515;BME280;35415;47.870;16.058;2022-08-30T08:26:41;97743.97;;;20.18;70.24
49515;BME280;35415;47.870;16.058;2022-08-30T08:29:12;97723.06;;;20.13;66.81
49515;BME280;35415;47.870;16.058;2022-08-30T08:31:42;97744.69;;;20.41;65.50
49515;BME280;35415;47.870;16.058;2022-08-30T08:34:12;97748.25;;;20.50;63.07
49515;BME280;35415;47.870;16.058;2022-08-30T08:36:40;97729.75;;;20.56;64.79
49515;BME280;35415;47.870;16.058;2022-08-30T08:39:08;97727.66;;;20.70;65.47
49515;BME280;35415;47.870;16.058;2022-08-30T08:41:41;97745.66;;;20.88;65.08
49515;BME280;35415;47.870;16.058;2022-08-30T08:44:23;97737.28;;;21.02;66.17
49515;BME280;35415;47.870;16.058;2022-08-30T08:46:57;97738.53;;;21.13;64.66
49515;BME280;35415;47.870;16.058;2022-08-30T08:49:29;97745.00;;;21.26;64.57
49515;BME280;35415;47.870;16.058;2022-08-30T08:51:57;97734.53;;;21.37;64.56
49515;BME280;35415;47.870;16.058;2022-08-30T08:54:47;97735.44;;;21.49;63.43
49515;BME280;35415;47.870;16.058;2022-08-30T08:57:18;97732.50;;;21.63;61.62
49515;BME280;35415;47.870;16.058;2022-08-30T08:59:45;97733.75;;;21.74;61.19
49515;BME280;35415;47.870;16.058;2022-08-30T09:02:23;97704.09;;;21.76;61.43
49515;BME280;35415;47.870;16.058;2022-08-30T09:04:56;97724.59;;;22.00;59.14
49515;BME280;35415;47.870;16.058;2022-08-30T09:07:27;97704.94;;;21.98;60.08
49515;BME280;35415;47.870;16.058;2022-08-30T09:09:56;97716.72;;;22.28;58.13
49515;BME280;35415;47.870;16.058;2022-08-30T09:12:25;97709.72;;;22.39;58.25
49515;BME280;35415;47.870;16.058;2022-08-30T09:14:55;97701.25;;;22.52;56.71
49515;BME280;35415;47.870;16.058;2022-08-30T09:17:24;97693.59;;;22.58;57.40
49515;BME280;35415;47.870;16.058;2022-08-30T09:19:59;97712.66;;;22.75;57.60
49515;BME280;35415;47.870;16.058;2022-08-30T09:22:31;97684.09;;;22.76;56.73
49515;BME280;35415;47.870;16.058;2022-08-30T09:25:04;97693.00;;;22.94;54.73
49515;BME280;35415;47.870;16.058;2022-08-30T09:27:34;97695.31;;;23.04;55.65
49515;BME280;35415;47.870;16.058;2022-08-30T09:30:06;97707.84;;;23.26;55.44
49515;BME280;35415;47.870;16.058;2022-08-30T09:32:38;97697.56;;;23.35;55.97
49515;BME280;35415;47.870;16.058;2022-08-30T09:35:09;97706.28;;;23.50;54.67
49515;BME280;35415;47.870;16.058;2022-08-30T09:37:38;97705.41;;;23.58;59.56
49515;BME280;35415;47.870;16.058;2022-08-30T09:40:13;97698.44;;;23.73;53.80
49515;BME280;35415;47.870;16.058;2022-08-30T09:42:57;97695.03;;;23.88;55.06
49515;BME280;35415;47.870;16.058;2022-08-30T09:45:32;97689.50;;;24.00;54.41
49515;BME280;35415;47.870;16.058;2022-08-30T09:48:20;97698.19;;;24.14;54.88
49515;BME280;35415;47.870;16.058;2022-08-30T09:50:52;97694.28;;;24.27;53.72
49515;BME280;35415;47.870;16.058;2022-08-30T09:53:24;97692.69;;;24.39;54.21
49515;BME280;35415;47.870;16.058;2022-08-30T09:56:05;97673.91;;;24.41;55.47
49515;BME280;35415;47.870;16.058;2022-08-30T09:58:44;97669.81;;;24.63;55.43
49515;BME280;35415;47.870;16.058;2022-08-30T10:01:19;97677.78;;;24.80;55.21
49515;BME280;35415;47.870;16.058;2022-08-30T10:03:53;97691.22;;;24.97;52.69
49515;BME280;35415;47.870;16.058;2022-08-30T10:06:32;97678.25;;;25.10;50.14
49515;BME280;35415;47.870;16.058;2022-08-30T10:09:11;97689.88;;;25.19;51.50
49515;BME280;35415;47.870;16.058;2022-08-30T10:11:47;97685.28;;;25.23;49.27
49515;BME280;35415;47.870;16.058;2022-08-30T10:14:32;97682.25;;;25.28;48.52
49515;BME280;35415;47.870;16.058;2022-08-30T10:17:09;97678.00;;;25.31;46.86
49515;BME280;35415;47.870;16.058;2022-08-30T10:19:55;97648.34;;;25.24;48.50
49515;BME280;35415;47.870;16.058;2022-08-30T10:22:29;97661.56;;;25.34;46.10
49515;BME280;35415;47.870;16.058;2022-08-30T10:25:02;97666.84;;;25.55;46.69
49515;BME280;35415;47.870;16.058;2022-08-30T10:27:37;97665.34;;;25.73;47.76
49515;BME280;35415;47.870;16.058;2022-08-30T10:30:10;97662.38;;;25.82;46.73
49515;BME280;35415;47.870;16.058;2022-08-30T10:32:43;97651.53;;;25.89;47.48
49515;BME280;35415;47.870;16.058;2022-08-30T10:35:15;97651.63;;;25.93;45.73
49515;BME280;35415;47.870;16.058;2022-08-30T10:37:48;97656.31;;;26.08;45.85
49515;BME280;35415;47.870;16.058;2022-08-30T10:40:20;97652.16;;;26.18;46.82
49515;BME280;35415;47.870;16.058;2022-08-30T10:43:15;97648.94;;;26.31;45.06
49515;BME280;35415;47.870;16.058;2022-08-30T10:45:48;97653.13;;;26.41;44.10
49515;BME280;35415;47.870;16.058;2022-08-30T10:48:22;97636.28;;;26.46;46.10
49515;BME280;35415;47.870;16.058;2022-08-30T10:50:55;97626.63;;;26.56;44.51
49515;BME280;35415;47.870;16.058;2022-08-30T10:53:29;97632.94;;;26.76;45.60
49515;BME280;35415;47.870;16.058;2022-08-30T10:56:01;97632.41;;;26.89;42.50
49515;BME280;35415;47.870;16.058;2022-08-30T10:58:29;97624.19;;;26.93;43.92
49515;BME280;35415;47.870;16.058;2022-08-30T11:01:16;97642.72;;;27.12;44.71
49515;BME280;35415;47.870;16.058;2022-08-30T11:04:16;97621.06;;;27.14;44.14
49515;BME280;35415;47.870;16.058;2022-08-30T11:06:56;97651.16;;;27.42;43.61
49515;BME280;35415;47.870;16.058;2022-08-30T11:09:38;97647.31;;;27.50;43.93
49515;BME280;35415;47.870;16.058;2022-08-30T11:12:27;97641.56;;;27.58;42.87
49515;BME280;35415;47.870;16.058;2022-08-30T11:14:59;97628.16;;;27.61;40.84
49515;BME280;35415;47.870;16.058;2022-08-30T11:17:30;97635.97;;;27.78;40.19
49515;BME280;35415;47.870;16.058;2022-08-30T11:20:03;97625.00;;;27.85;41.50
49515;BME280;35415;47.870;16.058;2022-08-30T11:22:34;97631.59;;;28.03;43.00
49515;BME280;35415;47.870;16.058;2022-08-30T11:25:09;97626.59;;;28.12;42.35
49515;BME280;35415;47.870;16.058;2022-08-30T11:27:46;97618.00;;;28.21;41.39
49515;BME280;35415;47.870;16.058;2022-08-30T11:30:46;97613.91;;;28.38;42.34
49515;BME280;35415;47.870;16.058;2022-08-30T11:33:44;97621.97;;;28.50;42.14
49515;BME280;35415;47.870;16.058;2022-08-30T11:36:59;97607.94;;;28.66;41.69
49515;BME280;35415;47.870;16.058;2022-08-30T11:39:52;97604.91;;;28.78;41.73
49515;BME280;35415;47.870;16.058;2022-08-30T11:42:34;97572.31;;;28.61;38.77
49515;BME280;35415;47.870;16.058;2022-08-30T11:48:36;97596.59;;;29.12;37.49
49515;BME280;35415;47.870;16.058;2022-08-30T11:50:59;97598.63;;;29.18;37.83
49515;BME280;35415;47.870;16.058;2022-08-30T11:53:32;97599.50;;;29.26;37.77
49515;BME280;35415;47.870;16.058;2022-08-30T11:56:06;97599.50;;;29.26;38.22
49515;BME280;35415;47.870;16.058;2022-08-30T11:58:45;97602.28;;;29.29;38.17
49515;BME280;35415;47.870;16.058;2022-08-30T12:01:19;97596.06;;;29.40;36.21
49515;BME280;35415;47.870;16.058;2022-08-30T12:03:54;97602.88;;;29.49;38.38
49515;BME280;35415;47.870;16.058;2022-08-30T12:06:43;97604.53;;;29.57;38.62
49515;BME280;35415;47.870;16.058;2022-08-30T12:09:14;97598.63;;;29.59;35.86
49515;BME280;35415;47.870;16.058;2022-08-30T12:12:00;97592.69;;;29.64;35.79
49515;BME280;35415;47.870;16.058;2022-08-30T12:14:39;97566.56;;;29.61;36.52
49515;BME280;35415;47.870;16.058;2022-08-30T12:17:15;97588.88;;;29.83;35.75
49515;BME280;35415;47.870;16.058;2022-08-30T12:20:04;97544.44;;;29.72;35.57
49515;BME280;35415;47.870;16.058;2022-08-30T12:22:37;97555.19;;;29.84;35.86
49515;BME280;35415;47.870;16.058;2022-08-30T12:25:16;97587.88;;;30.09;36.42
49515;BME280;35415;47.870;16.058;2022-08-30T12:27:44;97577.59;;;30.16;35.63
49515;BME280;35415;47.870;16.058;2022-08-30T12:30:13;97575.63;;;30.17;35.01
49515;BME280;35415;47.870;16.058;2022-08-30T12:32:45;97577.28;;;30.29;35.09
49515;BME280;35415;47.870;16.058;2022-08-30T12:35:19;97576.91;;;30.37;35.41
49515;BME280;35415;47.870;16.058;2022-08-30T12:37:56;97574.97;;;30.45;36.78
49515;BME280;35415;47.870;16.058;2022-08-30T12:40:26;97568.22;;;30.49;34.60
49515;BME280;35415;47.870;16.058;2022-08-30T12:42:57;97562.69;;;30.57;33.92
49515;BME280;35415;47.870;16.058;2022-08-30T12:45:30;97554.78;;;30.59;33.37
49515;BME280;35415;47.870;16.058;2022-08-30T12:48:01;97546.84;;;30.57;33.29
49515;BME280;35415;47.870;16.058;2022-08-30T12:50:32;97543.66;;;30.51;32.80
49515;BME280;35415;47.870;16.058;2022-08-30T12:53:03;97545.28;;;30.60;33.43
49515;BME280;35415;47.870;16.058;2022-08-30T12:55:34;97550.06;;;30.66;33.85
49515;BME280;35415;47.870;16.058;2022-08-30T12:58:03;97542.91;;;30.65;33.70
49515;BME280;35415;47.870;16.058;2022-08-30T13:00:34;97541.72;;;30.70;33.12
49515;BME280;35415;47.870;16.058;2022-08-30T13:03:05;97538.16;;;30.73;34.21
49515;BME280;35415;47.870;16.058;2022-08-30T13:05:54;97535.78;;;30.68;33.29
49515;BME280;35415;47.870;16.058;2022-08-30T13:08:23;97550.53;;;30.93;33.89
49515;BME280;35415;47.870;16.058;2022-08-30T13:10:55;97550.91;;;31.02;34.30